createdAt,value
2018-12-31T00:02:20.443Z,32.33
2018-12-31T00:04:48.651Z,32.29
2018-12-31T00:07:16.842Z,32.32
2018-12-31T00:09:45.074Z,32.29
2018-12-31T00:12:13.280Z,32.28
2018-12-31T00:14:41.511Z,32.27
2018-12-31T00:17:09.703Z,32.30
2018-12-31T00:19:37.967Z,32.28
2018-12-31T00:22:06.164Z,32.29
2018-12-31T00:24:34.380Z,32.28
2018-12-31T00:27:02.629Z,32.27
2018-12-31T00:29:30.819Z,32.28
2018-12-31T00:31:59.027Z,32.33
2018-12-31T00:34:27.251Z,32.38
2018-12-31T00:36:55.497Z,32.32
2018-12-31T00:39:23.691Z,32.36
2018-12-31T00:41:51.932Z,32.30
2018-12-31T00:44:20.139Z,32.29
2018-12-31T00:46:48.375Z,32.30
2018-12-31T00:49:16.578Z,32.29
2018-12-31T00:51:44.775Z,32.31
2018-12-31T00:54:12.994Z,32.30
2018-12-31T00:56:41.238Z,32.33
2018-12-31T00:59:09.432Z,32.36
2018-12-31T01:01:37.645Z,32.31
2018-12-31T01:04:05.874Z,32.33
2018-12-31T01:06:34.108Z,32.34
2018-12-31T01:09:02.310Z,32.33
2018-12-31T01:11:30.512Z,32.36
2018-12-31T01:13:58.742Z,32.40
2018-12-31T01:16:26.939Z,32.41
2018-12-31T01:18:55.167Z,32.45
2018-12-31T01:21:23.400Z,32.41
2018-12-31T01:23:51.604Z,32.42
2018-12-31T01:26:19.794Z,32.46
2018-12-31T01:28:48.026Z,32.42
2018-12-31T01:31:16.250Z,32.41
2018-12-31T01:33:44.447Z,32.41
2018-12-31T01:36:12.677Z,32.38
2018-12-31T01:38:40.889Z,32.43
2018-12-31T01:41:09.207Z,32.42
2018-12-31T01:43:37.410Z,32.42
2018-12-31T01:46:05.649Z,32.42
2018-12-31T01:48:33.860Z,32.40
2018-12-31T01:51:02.065Z,32.40
2018-12-31T01:53:30.294Z,32.40
2018-12-31T01:55:58.496Z,32.38
2018-12-31T01:58:26.729Z,32.41
2018-12-31T02:00:54.945Z,32.38
2018-12-31T02:03:23.185Z,32.37
2018-12-31T02:05:51.401Z,32.44
2018-12-31T02:08:19.620Z,32.41
2018-12-31T02:10:47.839Z,32.41
2018-12-31T02:13:16.046Z,32.42
2018-12-31T02:15:44.267Z,32.39
2018-12-31T02:18:12.459Z,32.40
2018-12-31T02:20:40.706Z,32.42
2018-12-31T02:23:08.910Z,32.40
2018-12-31T02:25:37.104Z,32.41
2018-12-31T02:28:05.328Z,32.42
2018-12-31T02:30:33.515Z,32.45
2018-12-31T02:33:01.738Z,32.41
2018-12-31T02:35:29.954Z,32.39
2018-12-31T02:37:58.164Z,32.39
2018-12-31T02:40:26.376Z,32.41
2018-12-31T02:42:54.672Z,32.43
2018-12-31T02:45:22.903Z,32.43
2018-12-31T02:47:51.096Z,32.49
2018-12-31T02:50:19.312Z,32.45
2018-12-31T02:52:47.546Z,32.42
2018-12-31T02:55:15.748Z,32.46
2018-12-31T02:57:43.952Z,32.42
2018-12-31T03:00:12.187Z,32.46
2018-12-31T03:02:40.385Z,32.49
2018-12-31T03:05:08.624Z,32.52
2018-12-31T03:07:36.836Z,32.49
2018-12-31T03:10:05.228Z,32.50
2018-12-31T03:12:33.442Z,32.45
2018-12-31T03:15:01.661Z,32.50
2018-12-31T03:17:29.870Z,32.53
2018-12-31T03:19:58.100Z,32.49
2018-12-31T03:22:26.306Z,32.46
2018-12-31T03:24:54.537Z,32.47
2018-12-31T03:27:22.741Z,32.46
2018-12-31T03:29:50.963Z,32.47
2018-12-31T03:32:19.164Z,32.46
2018-12-31T03:34:47.396Z,32.48
2018-12-31T03:37:15.608Z,32.46
2018-12-31T03:39:43.841Z,32.44
2018-12-31T03:42:12.062Z,32.45
2018-12-31T03:44:40.272Z,32.47
2018-12-31T03:47:08.507Z,32.45
2018-12-31T03:49:36.710Z,32.48
2018-12-31T03:52:04.932Z,32.45
2018-12-31T03:54:33.124Z,32.47
2018-12-31T03:57:01.371Z,32.49
2018-12-31T03:59:29.605Z,32.56
2018-12-31T04:01:57.832Z,32.51
2018-12-31T04:04:26.031Z,32.47
2018-12-31T04:06:54.263Z,32.48
2018-12-31T04:09:22.469Z,32.46
2018-12-31T04:11:50.705Z,32.46
2018-12-31T04:14:18.899Z,32.47
2018-12-31T04:16:47.110Z,32.49
2018-12-31T04:19:15.305Z,32.54
2018-12-31T04:21:43.528Z,32.52
2018-12-31T04:24:11.752Z,32.49
2018-12-31T04:26:39.953Z,32.56
2018-12-31T04:29:08.172Z,32.58
2018-12-31T04:31:36.405Z,32.58
2018-12-31T04:34:04.640Z,32.60
2018-12-31T04:36:32.844Z,32.54
2018-12-31T04:39:01.042Z,32.55
2018-12-31T04:41:29.257Z,32.55
2018-12-31T04:43:57.477Z,32.52
2018-12-31T04:46:25.718Z,32.62
2018-12-31T04:48:53.911Z,32.59
2018-12-31T04:51:22.158Z,32.63
2018-12-31T04:53:50.376Z,32.61
2018-12-31T04:56:18.594Z,32.59
2018-12-31T04:58:46.815Z,32.60
2018-12-31T05:01:15.008Z,32.63
2018-12-31T05:03:43.236Z,32.59
2018-12-31T05:06:11.463Z,32.57
2018-12-31T05:08:39.672Z,32.60
2018-12-31T05:11:07.869Z,32.66
2018-12-31T05:13:36.104Z,32.69
2018-12-31T05:16:04.308Z,32.70
2018-12-31T05:18:32.545Z,32.63
2018-12-31T05:21:00.749Z,32.64
2018-12-31T05:23:28.958Z,32.64
2018-12-31T05:25:57.163Z,32.64
2018-12-31T05:28:25.371Z,32.63
2018-12-31T05:30:53.603Z,32.72
2018-12-31T05:33:21.827Z,32.66
2018-12-31T05:35:50.009Z,32.62
2018-12-31T05:38:18.237Z,32.65
2018-12-31T05:40:46.435Z,32.71
2018-12-31T05:43:14.669Z,32.71
2018-12-31T05:45:42.861Z,32.62
2018-12-31T05:48:11.079Z,32.59
2018-12-31T05:50:39.301Z,32.54
2018-12-31T05:53:07.523Z,32.56
2018-12-31T05:55:35.749Z,32.58
2018-12-31T05:58:03.944Z,32.57
2018-12-31T06:00:32.838Z,32.58
2018-12-31T06:03:01.035Z,32.57
2018-12-31T06:05:29.249Z,32.58
2018-12-31T06:07:57.442Z,32.55
2018-12-31T06:10:25.646Z,32.63
2018-12-31T06:12:53.880Z,32.71
2018-12-31T06:15:22.075Z,32.67
2018-12-31T06:17:50.300Z,32.68
2018-12-31T06:20:18.531Z,32.73
2018-12-31T06:22:46.767Z,32.69
2018-12-31T06:25:14.962Z,32.70
2018-12-31T06:27:43.180Z,32.68
2018-12-31T06:30:11.423Z,32.72
2018-12-31T06:32:39.621Z,32.74
2018-12-31T06:35:07.848Z,32.67
2018-12-31T06:37:36.059Z,32.74
2018-12-31T06:40:04.655Z,32.73
2018-12-31T06:42:32.844Z,32.68
2018-12-31T06:45:01.074Z,32.70
2018-12-31T06:47:29.282Z,32.74
2018-12-31T06:49:57.510Z,32.71
2018-12-31T06:52:25.736Z,32.73
2018-12-31T06:54:53.934Z,32.76
2018-12-31T06:57:22.153Z,32.81
2018-12-31T06:59:50.722Z,32.78
2018-12-31T07:02:18.951Z,32.76
2018-12-31T07:04:47.144Z,32.86
2018-12-31T07:07:15.346Z,32.81
2018-12-31T07:09:43.567Z,32.79
2018-12-31T07:12:11.765Z,32.82
2018-12-31T07:14:40.000Z,32.83
2018-12-31T07:17:08.224Z,32.80
2018-12-31T07:19:36.437Z,32.89
2018-12-31T07:22:04.636Z,32.86
2018-12-31T07:24:32.836Z,32.80
2018-12-31T07:27:01.064Z,32.76
2018-12-31T07:29:29.263Z,32.75
2018-12-31T07:31:57.494Z,32.76
2018-12-31T07:34:25.680Z,32.84
2018-12-31T07:36:53.912Z,32.83
2018-12-31T07:39:22.112Z,32.81
2018-12-31T07:41:50.328Z,32.87
2018-12-31T07:44:18.539Z,32.87
2018-12-31T07:46:46.774Z,32.91
2018-12-31T07:49:14.995Z,32.85
2018-12-31T07:51:43.252Z,32.93
2018-12-31T07:54:11.445Z,32.92
2018-12-31T07:56:39.639Z,32.94
2018-12-31T07:59:07.872Z,32.95
2018-12-31T08:01:36.060Z,32.92
2018-12-31T08:04:04.271Z,32.90
2018-12-31T08:06:32.502Z,32.90
2018-12-31T08:09:00.707Z,32.99
2018-12-31T08:11:28.920Z,32.93
2018-12-31T08:13:57.133Z,32.93
2018-12-31T08:16:25.356Z,32.95
2018-12-31T08:18:53.658Z,32.93
2018-12-31T08:21:21.887Z,32.89
2018-12-31T08:23:50.082Z,32.90
2018-12-31T08:26:18.311Z,32.90
2018-12-31T08:28:46.502Z,32.93
2018-12-31T08:31:14.730Z,32.96
2018-12-31T08:33:42.926Z,32.93
2018-12-31T08:36:11.152Z,33.01
2018-12-31T08:38:39.360Z,32.96
2018-12-31T08:41:07.568Z,32.97
2018-12-31T08:43:35.800Z,33.04
2018-12-31T08:46:04.027Z,32.97
2018-12-31T08:48:32.261Z,33.04
2018-12-31T08:51:00.487Z,32.95
2018-12-31T08:53:28.717Z,33.05
2018-12-31T08:55:56.923Z,33.00
2018-12-31T08:58:25.177Z,33.03
2018-12-31T09:00:53.342Z,33.03
2018-12-31T09:03:21.535Z,33.00
2018-12-31T09:05:49.765Z,32.97
2018-12-31T09:08:17.959Z,33.03
2018-12-31T09:10:46.205Z,32.96
2018-12-31T09:13:14.434Z,33.01
2018-12-31T09:15:42.659Z,33.04
2018-12-31T09:18:10.866Z,33.08
2018-12-31T09:20:39.071Z,33.03
2018-12-31T09:23:07.297Z,33.01
2018-12-31T09:25:35.511Z,33.05
2018-12-31T09:28:03.735Z,33.05
2018-12-31T09:30:31.955Z,33.09
2018-12-31T09:33:00.140Z,33.13
2018-12-31T09:35:28.367Z,33.19
2018-12-31T09:37:56.562Z,33.13
2018-12-31T09:40:24.805Z,33.16
2018-12-31T09:42:53.013Z,33.18
2018-12-31T09:45:21.242Z,33.14
2018-12-31T09:47:49.458Z,33.13
2018-12-31T09:50:17.835Z,33.20
2018-12-31T09:52:46.028Z,33.20
2018-12-31T09:55:14.233Z,33.18
2018-12-31T09:57:42.449Z,33.21
2018-12-31T10:00:10.653Z,33.23
2018-12-31T10:02:38.869Z,33.21
2018-12-31T10:05:07.074Z,33.18
2018-12-31T10:07:35.298Z,33.22
2018-12-31T10:10:03.535Z,33.50
2018-12-31T10:12:31.745Z,33.27
2018-12-31T10:14:59.947Z,33.23
2018-12-31T10:17:28.170Z,33.26
2018-12-31T10:19:56.395Z,33.20
2018-12-31T10:22:24.629Z,33.19
2018-12-31T10:24:52.856Z,33.21
2018-12-31T10:27:21.071Z,33.25
2018-12-31T10:29:49.264Z,33.30
2018-12-31T10:32:17.478Z,33.24
2018-12-31T10:34:45.784Z,33.35
2018-12-31T10:37:13.925Z,33.24
2018-12-31T10:39:42.139Z,33.24
2018-12-31T10:42:10.346Z,33.31
2018-12-31T10:44:38.585Z,33.34
2018-12-31T10:47:06.779Z,33.26
2018-12-31T10:49:35.009Z,33.31
2018-12-31T10:52:03.216Z,33.34
2018-12-31T10:54:31.447Z,33.29
2018-12-31T10:56:59.675Z,33.36
2018-12-31T10:59:27.888Z,33.38
2018-12-31T11:01:56.107Z,33.40
2018-12-31T11:04:24.355Z,33.37
2018-12-31T11:06:52.558Z,33.32
2018-12-31T11:09:20.787Z,33.41
2018-12-31T11:11:48.994Z,33.28
2018-12-31T11:14:17.223Z,33.45
2018-12-31T11:16:45.501Z,33.32
2018-12-31T11:19:13.688Z,33.35
2018-12-31T11:21:41.909Z,33.42
2018-12-31T11:24:10.122Z,33.37
2018-12-31T11:26:38.324Z,33.48
2018-12-31T11:29:06.563Z,33.37
2018-12-31T11:31:34.770Z,33.33
2018-12-31T11:34:02.984Z,33.37
2018-12-31T11:36:32.494Z,33.44
2018-12-31T11:39:00.880Z,33.46
2018-12-31T11:41:29.092Z,33.48
2018-12-31T11:43:57.312Z,33.46
2018-12-31T11:46:25.499Z,33.50
2018-12-31T11:48:53.724Z,33.48
2018-12-31T11:51:21.934Z,33.49
2018-12-31T11:53:50.160Z,33.47
2018-12-31T11:56:18.368Z,33.45
2018-12-31T11:58:46.566Z,33.48
2018-12-31T12:01:14.798Z,33.56
2018-12-31T12:03:43.018Z,33.66
2018-12-31T12:06:11.276Z,33.61
2018-12-31T12:08:39.462Z,33.50
2018-12-31T12:11:07.684Z,33.67
2018-12-31T12:13:35.895Z,33.77
2018-12-31T12:16:04.133Z,33.77
2018-12-31T12:18:32.365Z,33.62
2018-12-31T12:21:00.578Z,33.92
2018-12-31T12:23:28.805Z,33.67
2018-12-31T12:25:57.006Z,33.57
2018-12-31T12:28:25.238Z,33.80
2018-12-31T12:30:53.441Z,33.67
2018-12-31T12:33:21.671Z,33.80
2018-12-31T12:35:49.895Z,33.75
2018-12-31T12:38:18.469Z,33.92
2018-12-31T12:40:46.696Z,33.88
2018-12-31T12:43:14.893Z,33.89
2018-12-31T12:45:43.114Z,33.83
2018-12-31T12:48:11.297Z,33.82
2018-12-31T12:50:39.523Z,33.84
2018-12-31T12:53:07.719Z,33.88
2018-12-31T12:55:35.919Z,33.83
2018-12-31T12:58:04.145Z,34.03
2018-12-31T13:00:32.344Z,33.82
2018-12-31T13:03:00.559Z,33.93
2018-12-31T13:05:28.761Z,33.84
2018-12-31T13:07:56.986Z,33.81
2018-12-31T13:10:25.188Z,33.84
2018-12-31T13:12:53.422Z,33.84
2018-12-31T13:15:21.616Z,33.80
2018-12-31T13:17:49.844Z,33.73
2018-12-31T13:20:18.056Z,33.83
2018-12-31T13:22:46.296Z,33.70
2018-12-31T13:25:14.518Z,33.90
2018-12-31T13:27:42.718Z,33.80
2018-12-31T13:30:11.226Z,33.83
2018-12-31T13:32:39.425Z,33.97
2018-12-31T13:35:07.650Z,33.85
2018-12-31T13:37:35.928Z,33.99
2018-12-31T13:40:04.738Z,34.11
2018-12-31T13:42:32.942Z,33.91
2018-12-31T13:45:01.160Z,33.96
2018-12-31T13:47:29.404Z,34.03
2018-12-31T13:49:57.612Z,34.03
2018-12-31T13:52:25.810Z,33.97
2018-12-31T13:54:54.022Z,34.08
2018-12-31T13:57:22.238Z,33.95
2018-12-31T13:59:50.488Z,34.10
2018-12-31T14:02:18.714Z,33.93
2018-12-31T14:04:46.958Z,34.13
2018-12-31T14:07:15.161Z,33.91
2018-12-31T14:09:43.400Z,34.04
2018-12-31T14:12:11.594Z,33.94
2018-12-31T14:14:39.806Z,33.97
2018-12-31T14:17:08.028Z,34.08
2018-12-31T14:19:36.242Z,33.97
2018-12-31T14:22:04.724Z,33.96
2018-12-31T14:24:33.033Z,33.96
2018-12-31T14:27:01.278Z,34.08
2018-12-31T14:29:29.494Z,34.09
2018-12-31T14:31:57.724Z,34.08
2018-12-31T14:34:26.233Z,34.02
2018-12-31T14:36:54.460Z,34.05
2018-12-31T14:39:22.695Z,33.98
2018-12-31T14:41:50.914Z,33.97
2018-12-31T14:44:19.110Z,33.99
2018-12-31T14:46:47.326Z,33.98
2018-12-31T14:49:15.556Z,34.02
2018-12-31T14:51:43.757Z,34.08
2018-12-31T14:54:12.002Z,34.00
2018-12-31T14:56:40.198Z,33.99
2018-12-31T14:59:08.412Z,34.02
2018-12-31T15:01:36.626Z,33.96
2018-12-31T15:04:04.847Z,34.00
2018-12-31T15:06:33.076Z,33.98
2018-12-31T15:09:02.669Z,34.04
2018-12-31T15:11:31.004Z,34.02
2018-12-31T15:13:59.520Z,33.99
2018-12-31T15:16:27.746Z,34.00
2018-12-31T15:18:55.968Z,34.03
2018-12-31T15:21:24.172Z,34.03
2018-12-31T15:23:52.423Z,34.02
2018-12-31T15:26:20.998Z,34.06
2018-12-31T15:28:49.230Z,33.97
2018-12-31T15:31:17.469Z,34.03
2018-12-31T15:33:45.714Z,34.05
2018-12-31T15:36:13.908Z,33.98
2018-12-31T15:38:42.104Z,34.04
2018-12-31T15:41:10.318Z,34.02
2018-12-31T15:43:38.532Z,34.01
2018-12-31T15:46:06.768Z,34.00
2018-12-31T15:48:34.964Z,33.99
2018-12-31T15:51:03.210Z,34.09
2018-12-31T15:53:31.804Z,34.08
2018-12-31T15:56:00.020Z,34.02
2018-12-31T15:58:28.272Z,34.04
2018-12-31T16:00:56.499Z,34.03
2018-12-31T16:03:24.709Z,34.05
2018-12-31T16:05:52.942Z,34.09
2018-12-31T16:08:21.150Z,34.14
2018-12-31T16:10:49.374Z,34.16
2018-12-31T16:13:17.598Z,34.06
2018-12-31T16:15:46.307Z,34.09
2018-12-31T16:18:14.740Z,34.08
2018-12-31T16:20:42.928Z,34.05
2018-12-31T16:23:11.231Z,34.03
2018-12-31T16:25:39.437Z,34.03
2018-12-31T16:28:07.688Z,34.06
2018-12-31T16:30:35.879Z,34.03
2018-12-31T16:33:04.393Z,34.02
2018-12-31T16:35:32.635Z,34.01
2018-12-31T16:38:00.853Z,34.14
2018-12-31T16:40:29.053Z,34.13
2018-12-31T16:42:57.279Z,34.11
2018-12-31T16:45:25.486Z,34.07
2018-12-31T16:47:53.714Z,34.08
2018-12-31T16:50:21.916Z,34.08
2018-12-31T16:52:50.151Z,34.04
2018-12-31T16:55:18.350Z,34.15
2018-12-31T16:57:46.581Z,34.06
2018-12-31T17:00:14.785Z,34.05
2018-12-31T17:02:43.021Z,34.04
2018-12-31T17:05:11.225Z,34.04
2018-12-31T17:07:39.429Z,34.05
2018-12-31T17:10:09.295Z,34.03
2018-12-31T17:12:37.784Z,34.11
2018-12-31T17:15:06.262Z,34.13
2018-12-31T17:17:34.465Z,34.07
2018-12-31T17:20:02.706Z,34.04
2018-12-31T17:22:30.897Z,34.13
2018-12-31T17:24:59.137Z,34.08
2018-12-31T17:27:27.353Z,34.12
2018-12-31T17:29:55.631Z,34.22
2018-12-31T17:32:23.839Z,34.21
2018-12-31T17:34:52.048Z,34.26
2018-12-31T17:37:20.291Z,34.21
2018-12-31T17:39:48.865Z,34.13
2018-12-31T17:42:17.084Z,34.15
2018-12-31T17:44:45.296Z,34.15
2018-12-31T17:47:13.518Z,34.25
2018-12-31T17:49:41.799Z,34.76
2018-12-31T17:52:10.023Z,35.03
2018-12-31T17:54:38.251Z,34.79
2018-12-31T17:57:06.461Z,34.64
2018-12-31T17:59:34.693Z,34.64
2018-12-31T18:02:02.901Z,34.57
2018-12-31T18:04:31.115Z,34.50
2018-12-31T18:06:59.591Z,34.50
2018-12-31T18:09:27.821Z,34.42
2018-12-31T18:11:56.064Z,34.35
2018-12-31T18:14:24.303Z,34.40
2018-12-31T18:16:52.512Z,34.41
2018-12-31T18:19:21.116Z,34.56
2018-12-31T18:21:49.325Z,34.50
2018-12-31T18:24:17.528Z,34.48
2018-12-31T18:26:45.757Z,34.47
2018-12-31T18:29:13.975Z,34.41
2018-12-31T18:31:42.185Z,34.40
2018-12-31T18:34:10.400Z,34.49
2018-12-31T18:36:38.627Z,34.49
2018-12-31T18:39:07.195Z,34.49
2018-12-31T18:41:35.422Z,34.49
2018-12-31T18:44:03.627Z,34.62
2018-12-31T18:46:32.149Z,34.37
2018-12-31T18:49:00.349Z,34.41
2018-12-31T18:51:28.574Z,34.32
2018-12-31T18:53:56.775Z,34.31
2018-12-31T18:56:24.993Z,34.29
2018-12-31T18:58:53.199Z,34.26
2018-12-31T19:01:21.438Z,34.30
2018-12-31T19:03:49.645Z,34.32
2018-12-31T19:06:17.854Z,34.34
2018-12-31T19:08:46.158Z,34.51
2018-12-31T19:11:14.364Z,34.49
2018-12-31T19:13:42.593Z,34.37
2018-12-31T19:16:10.797Z,34.49
2018-12-31T19:18:39.034Z,34.38
2018-12-31T19:21:07.251Z,34.49
2018-12-31T19:23:35.469Z,34.46
2018-12-31T19:26:03.772Z,34.51
2018-12-31T19:28:32.004Z,34.48
2018-12-31T19:31:00.213Z,34.41
2018-12-31T19:33:28.460Z,34.46
2018-12-31T19:35:56.679Z,34.44
2018-12-31T19:38:24.884Z,34.32
2018-12-31T19:40:53.088Z,34.34
2018-12-31T19:43:21.299Z,34.33
2018-12-31T19:45:49.553Z,34.34
2018-12-31T19:48:17.758Z,34.36
2018-12-31T19:50:45.959Z,34.33
2018-12-31T19:53:14.592Z,34.39
2018-12-31T19:55:42.797Z,34.46
2018-12-31T19:58:11.906Z,34.53
2018-12-31T20:00:40.131Z,34.41
2018-12-31T20:03:08.319Z,34.34
2018-12-31T20:05:36.551Z,34.42
2018-12-31T20:08:04.758Z,34.38
2018-12-31T20:10:34.585Z,34.33
2018-12-31T20:13:02.962Z,34.44
2018-12-31T20:15:31.174Z,34.39
2018-12-31T20:17:59.420Z,34.33
2018-12-31T20:20:27.932Z,34.31
2018-12-31T20:22:56.156Z,34.50
2018-12-31T20:25:24.396Z,34.46
2018-12-31T20:27:52.610Z,34.33
2018-12-31T20:30:20.845Z,34.38
2018-12-31T20:32:49.061Z,34.30
2018-12-31T20:35:17.436Z,34.28
2018-12-31T20:37:45.622Z,34.41
2018-12-31T20:40:13.849Z,34.39
2018-12-31T20:42:42.062Z,34.41
2018-12-31T20:45:10.298Z,34.46
2018-12-31T20:47:38.514Z,34.42
2018-12-31T20:50:07.364Z,34.44
2018-12-31T20:52:35.591Z,34.45
2018-12-31T20:55:03.965Z,34.49
2018-12-31T20:57:32.191Z,34.40
2018-12-31T21:00:00.581Z,34.54
2018-12-31T21:02:28.886Z,34.39
2018-12-31T21:04:57.090Z,34.63
2018-12-31T21:07:25.404Z,34.41
2018-12-31T21:09:53.628Z,34.54
2018-12-31T21:12:21.822Z,34.51
2018-12-31T21:14:50.032Z,34.50
2018-12-31T21:17:18.539Z,34.40
2018-12-31T21:19:46.752Z,34.37
2018-12-31T21:22:14.947Z,34.31
2018-12-31T21:24:43.174Z,34.43
2018-12-31T21:27:11.375Z,34.37
2018-12-31T21:29:39.593Z,34.41
2018-12-31T21:32:07.832Z,34.38
2018-12-31T21:34:36.038Z,34.48
2018-12-31T21:37:04.271Z,34.45
2018-12-31T21:39:32.456Z,34.48
2018-12-31T21:42:00.659Z,34.53
2018-12-31T21:44:29.263Z,34.47
2018-12-31T21:46:57.466Z,34.47
2018-12-31T21:49:25.692Z,34.55
2018-12-31T21:51:53.912Z,34.46
2018-12-31T21:54:22.105Z,34.38
2018-12-31T21:56:50.331Z,34.45
2018-12-31T21:59:18.543Z,34.36
2018-12-31T22:01:46.772Z,34.42
2018-12-31T22:04:15.049Z,34.33
2018-12-31T22:06:43.258Z,34.34
2018-12-31T22:09:11.482Z,34.47
2018-12-31T22:11:39.696Z,34.37
2018-12-31T22:14:07.927Z,34.37
2018-12-31T22:16:36.141Z,34.37
2018-12-31T22:19:04.408Z,34.37
2018-12-31T22:21:32.607Z,34.34
2018-12-31T22:24:00.799Z,34.31
2018-12-31T22:26:29.199Z,34.30
2018-12-31T22:28:57.439Z,34.26
2018-12-31T22:31:25.668Z,34.30
2018-12-31T22:33:53.872Z,34.35
2018-12-31T22:36:22.109Z,34.31
2018-12-31T22:38:50.311Z,34.29
2018-12-31T22:41:18.501Z,34.40
2018-12-31T22:43:46.735Z,34.30
2018-12-31T22:46:14.963Z,34.28
2018-12-31T22:48:43.163Z,34.24
2018-12-31T22:51:11.430Z,34.27
2018-12-31T22:53:39.663Z,34.24
2018-12-31T22:56:07.876Z,34.22
2018-12-31T22:58:36.112Z,34.21
2018-12-31T23:01:04.330Z,34.23
2018-12-31T23:03:32.560Z,34.20
2018-12-31T23:06:01.138Z,34.21
2018-12-31T23:08:29.338Z,34.22
2018-12-31T23:10:57.592Z,34.19
2018-12-31T23:13:26.534Z,34.22
2018-12-31T23:15:54.736Z,34.21
2018-12-31T23:18:22.960Z,34.25
2018-12-31T23:20:51.158Z,34.23
2018-12-31T23:23:19.390Z,34.21
2018-12-31T23:25:47.617Z,34.20
2018-12-31T23:28:15.856Z,34.19
2018-12-31T23:30:44.079Z,34.20
2018-12-31T23:33:12.568Z,34.21
2018-12-31T23:35:40.794Z,34.18
2018-12-31T23:38:09.005Z,34.18
2018-12-31T23:40:37.242Z,34.18
2018-12-31T23:43:06.593Z,34.19
2018-12-31T23:45:35.137Z,34.21
2018-12-31T23:48:03.378Z,34.21
2018-12-31T23:50:31.591Z,34.20
2018-12-31T23:52:59.820Z,34.16
2018-12-31T23:55:28.046Z,34.18
2018-12-31T23:57:56.239Z,34.18
